Scranton, SC

12:04 PM EDT on September 30, 2016 (GMT -0400)
Lynhurst Road | | Change Station

Elev 0 ft 34.01 °N, 79.58 °W | Updated 1 minute ago

Scattered Clouds
Scattered Clouds
85.1 °F
Feels Like 94 °F
N
2.0
Wind Variable Wind from East

Today
High -- | Low -- °F
--% Chance of Precip.
Yesterday
High -- | Low -- °F
Precip. -- in
Pressure 30.01 in
Visibility -9999.0 miles
Clouds Scattered Clouds 6000 ft
Heat Index 94 °F
Dew Point 75 °F
Humidity 73%
Rainfall 0.00 in
Snow Depth Not available.
7:13 AM 7:03 PM
Waning Crescent, 0% visible
METAR KCKI 301555Z AUTO 22003KT SCT060 28/20 A3001 RMK AO2 LTG DSNT NE PWINO
Pressure 30.01 in
Visibility -9999.0 miles
Clouds Scattered Clouds 6000 ft
Heat Index 94 °F
Dew Point 75 °F
Humidity 73%
Rainfall 0.00 in
Snow Depth Not available.
7:13 AM 7:03 PM
Waning Crescent, 0% visible
METAR KCKI 301555Z AUTO 22003KT SCT060 28/20 A3001 RMK AO2 LTG DSNT NE PWINO

10-Day Weather Forecast

Almanac

Astronomy

Sep. 30, 2016 Rise Set
Actual Time
Civil Twilight
Nautical Twilight
Astronomical Twilight
Moon
Length of Visible Light
Length of Day
Tomorrow will be .
, % of the Moon is Illuminated

Today's Extremes

State Highs State Lows

Community

WunderPhotos

Upload Photos

1,942,741 photos uploaded!

WunderBlog® & News

Nearby

Air Quality

  Air Quality AQ Index Pollutant
Not available.

Snow Depth

Station Depth Elevation

Earthquake Activity

City Distance Mag. Time & Date
Minimum magnitude displayed is 2.5.

Coastal Water Temperatures

Place Temperature

Stations

Nearby Weather Stations

Station Location Temp. Windchill Dew Point Humidity Wind Precip. Elev Updated Type
                   

Watches & Warnings

There are currently no watches in effect.